Parker, Colorado
Current Conditions -  °F | °C
As of 11:53 AM on Friday 31 Oct 2014 (Local Time) from KAPA Reporting Station
Broken Clouds Broken Clouds  
Wind Chill: 51°   Ceiling: 22000
Heat Index: 51°   Visibility: 10mi
Dew Point: 28°   Wind: 3mph
Humidity: 41%   Direction: 180°S
Pressure: 30.25"   Gusts: NA
Location:  39.52°N, 104.76°W
Report Text: KAPA 311753Z 18003KT 10SM SCT150 BKN220 11/M02 A3025 RMK AO2 SLP233 T01061022 10111 20017 58024
Loading
Personal Weather Stations






























Interactive Weather Map New forecast layout! Learn more

10-Day Weather Forecast

Advertisements
Track Severe Weather on mobile